createdAt,value
2022-12-23T00:01:55.731Z,10.7
2022-12-23T00:05:59.061Z,12
2022-12-23T00:08:00.834Z,11.9
2022-12-23T00:10:02.568Z,11.8
2022-12-23T00:12:07.841Z,12.6
2022-12-23T00:14:12.168Z,11.5
2022-12-23T00:16:11.385Z,10.7
2022-12-23T00:18:13.132Z,9.8
2022-12-23T00:20:14.921Z,12.2
2022-12-23T00:22:16.696Z,11.1
2022-12-23T00:24:18.444Z,11.2
2022-12-23T00:26:23.691Z,11.7
2022-12-23T00:28:25.504Z,11.6
2022-12-23T00:30:27.252Z,11.5
2022-12-23T00:31:29.937Z,13.9
2022-12-23T00:33:31.638Z,11.3
2022-12-23T00:35:33.418Z,12.8
2022-12-23T00:37:35.193Z,11.6
2022-12-23T00:39:40.445Z,13.8
2022-12-23T00:41:42.206Z,11.9
2022-12-23T00:43:43.970Z,13.2
2022-12-23T00:45:45.806Z,14.3
2022-12-23T00:47:47.541Z,13.3
2022-12-23T00:49:49.320Z,15.3
2022-12-23T00:51:51.096Z,13.2
2022-12-23T00:53:56.321Z,13.3
2022-12-23T00:55:58.072Z,13.2
2022-12-23T00:57:59.855Z,13.1
2022-12-23T01:02:03.531Z,14.1
2022-12-23T01:04:05.116Z,15.4
2022-12-23T01:06:06.877Z,14.4
2022-12-23T01:08:12.151Z,15.6
2022-12-23T01:10:13.889Z,15.3
2022-12-23T01:12:15.637Z,16.2
2022-12-23T01:14:17.389Z,16.5
2022-12-23T01:16:19.189Z,15.9
2022-12-23T01:28:54.677Z,19.7
2022-12-23T01:32:58.169Z,16.5
2022-12-23T01:35:03.416Z,16.7
2022-12-23T01:37:05.189Z,17.5
2022-12-23T01:39:06.945Z,14.3
2022-12-23T01:41:08.708Z,15.9
2022-12-23T01:57:26.364Z,13.1
2022-12-23T02:05:36.952Z,14.2
2022-12-23T02:15:45.732Z,11.1
2022-12-23T02:17:51.047Z,12.2
2022-12-23T02:19:52.827Z,10.9
2022-12-23T02:21:54.571Z,12.2
2022-12-23T02:22:57.170Z,13.2
2022-12-23T02:24:58.933Z,13.5
2022-12-23T02:27:00.690Z,13.5
2022-12-23T02:29:02.426Z,12.1
2022-12-23T02:33:09.450Z,10.6
2022-12-23T02:35:11.191Z,11.7
2022-12-23T02:41:16.634Z,11.7
2022-12-23T02:43:18.500Z,12.4
2022-12-23T02:47:25.470Z,12.8
2022-12-23T02:51:29.125Z,10.5
2022-12-23T02:57:34.667Z,9.9
2022-12-23T02:59:39.988Z,10.8
2022-12-23T03:03:43.605Z,10
2022-12-23T03:05:45.305Z,11.5
2022-12-23T03:07:47.173Z,13.2
2022-12-23T03:11:50.867Z,13.6
2022-12-23T03:13:56.169Z,12
2022-12-23T03:15:58.051Z,12.3
2022-12-23T03:19:02.539Z,13.2
2022-12-23T03:21:04.344Z,12.6
2022-12-23T03:23:06.172Z,14.1
2022-12-23T03:25:08.008Z,12.7
2022-12-23T03:27:15.016Z,12.6
2022-12-23T03:29:16.907Z,10.7
2022-12-23T03:31:18.752Z,13.6
2022-12-23T03:33:20.501Z,14.1
2022-12-23T03:35:22.348Z,13
2022-12-23T03:37:24.204Z,15
2022-12-23T03:39:26.052Z,14.9
2022-12-23T03:41:31.337Z,13.7
2022-12-23T03:43:33.126Z,12.2
2022-12-23T03:45:40.319Z,11.7
2022-12-23T03:47:36.783Z,12.5
2022-12-23T03:49:38.619Z,14.9
2022-12-23T03:51:40.472Z,13.7
2022-12-23T03:53:42.490Z,14.5
2022-12-23T03:55:47.580Z,15
2022-12-23T03:59:51.423Z,16.1
2022-12-23T04:01:53.183Z,14.8
2022-12-23T04:03:54.924Z,15.6
2022-12-23T04:05:56.564Z,15.8
2022-12-23T04:07:58.293Z,15.5
2022-12-23T04:12:05.283Z,16.8
2022-12-23T04:14:07.060Z,15.1
2022-12-23T04:15:13.059Z,18.4
2022-12-23T04:19:13.154Z,17.6
2022-12-23T04:21:14.967Z,16.1
2022-12-23T04:23:20.167Z,18.8
2022-12-23T04:25:21.919Z,19.7
2022-12-23T04:27:23.688Z,18.4
2022-12-23T04:29:25.402Z,17.3
2022-12-23T04:31:27.295Z,19.2
2022-12-23T04:33:28.933Z,19.8
2022-12-23T04:35:30.720Z,19.8
2022-12-23T04:37:35.924Z,22
2022-12-23T04:39:37.704Z,19.9
2022-12-23T04:47:44.725Z,20.6
2022-12-23T04:49:46.457Z,20.8
2022-12-23T04:55:55.253Z,24
2022-12-23T04:57:56.977Z,23.9
2022-12-23T05:06:07.489Z,22.2
2022-12-23T05:08:09.242Z,25
2022-12-23T05:10:10.999Z,22
2022-12-23T05:12:15.409Z,23.2
2022-12-23T05:14:17.171Z,24.7
2022-12-23T05:16:18.943Z,23.9
2022-12-23T05:20:25.110Z,24
2022-12-23T05:22:26.842Z,21.9
2022-12-23T05:24:31.257Z,21.9
2022-12-23T05:28:34.877Z,19.7
2022-12-23T05:30:39.457Z,17.7
2022-12-23T05:32:41.228Z,20.1
2022-12-23T05:34:43.068Z,21.8
2022-12-23T05:36:47.599Z,21
2022-12-23T05:38:49.308Z,20.5
2022-12-23T05:40:51.102Z,19.6
2022-12-23T05:42:55.493Z,20.3
2022-12-23T05:44:57.271Z,21.9
2022-12-23T05:46:58.998Z,21.5
2022-12-23T05:49:03.412Z,19.8
2022-12-23T05:53:06.847Z,21.1
2022-12-23T05:55:11.264Z,22
2022-12-23T05:57:13.006Z,19.6
2022-12-23T05:59:14.716Z,21
2022-12-23T06:01:19.116Z,22.1
2022-12-23T06:03:21.119Z,18
2022-12-23T06:05:22.654Z,20.9
2022-12-23T06:07:27.046Z,21
2022-12-23T06:11:30.493Z,19.1
2022-12-23T06:13:34.985Z,20.4
2022-12-23T06:15:36.643Z,19.2
2022-12-23T06:17:38.362Z,24.3
2022-12-23T06:19:42.776Z,18.8
2022-12-23T06:21:44.568Z,19.9
2022-12-23T06:23:46.391Z,19.2
2022-12-23T06:25:50.910Z,22.3
2022-12-23T06:27:52.757Z,20.5
2022-12-23T06:29:54.578Z,20.9
2022-12-23T06:31:59.263Z,19.1
2022-12-23T06:34:00.911Z,23.1
2022-12-23T06:38:11.872Z,20.3
2022-12-23T06:40:09.130Z,20
2022-12-23T06:42:10.902Z,23.5
2022-12-23T06:44:15.426Z,19.5
2022-12-23T06:46:17.329Z,18.1
2022-12-23T06:48:19.069Z,21.8
2022-12-23T06:50:23.487Z,19.3
2022-12-23T06:52:25.226Z,18.1
2022-12-23T06:54:27.043Z,19.4
2022-12-23T06:56:31.587Z,17.5
2022-12-23T07:00:35.207Z,17.1
2022-12-23T07:02:39.941Z,17.8
2022-12-23T07:10:49.392Z,15.9
2022-12-23T07:14:55.565Z,21.5
2022-12-23T07:18:59.217Z,21
2022-12-23T07:21:03.734Z,20.5
2022-12-23T07:23:05.573Z,17.8
2022-12-23T07:25:07.317Z,19.3
2022-12-23T07:27:11.835Z,17.5
2022-12-23T07:29:13.640Z,17.8
2022-12-23T07:31:15.511Z,20
2022-12-23T07:33:20.008Z,18.4
2022-12-23T07:35:21.850Z,19.7
2022-12-23T07:37:23.670Z,17.1
2022-12-23T07:39:34.295Z,18.4
2022-12-23T07:41:36.074Z,18.9
2022-12-23T07:43:37.872Z,18.7
2022-12-23T07:45:51.389Z,17.9
2022-12-23T07:49:52.105Z,19.5
2022-12-23T08:02:52.925Z,18.8
2022-12-23T08:05:03.492Z,22.3
2022-12-23T08:15:15.190Z,22
2022-12-23T08:21:23.362Z,21.8
2022-12-23T08:25:29.721Z,21.8
2022-12-23T08:27:31.551Z,22.4
2022-12-23T08:29:36.649Z,21.4
2022-12-23T08:31:37.893Z,24.3
2022-12-23T08:33:39.673Z,21.4
2022-12-23T08:35:44.186Z,22
2022-12-23T08:39:47.862Z,23.3
2022-12-23T08:41:52.355Z,24.3
2022-12-23T08:43:54.186Z,24.1
2022-12-23T08:45:56.012Z,21.5
2022-12-23T08:48:00.539Z,23.6
2022-12-23T08:52:04.205Z,22.7
2022-12-23T08:54:08.703Z,25.8
2022-12-23T08:56:10.542Z,26
2022-12-23T08:58:12.401Z,26.3
2022-12-23T09:00:16.907Z,26
2022-12-23T09:02:18.959Z,26.9
2022-12-23T09:04:20.531Z,25.8
2022-12-23T09:06:29.553Z,26.2
2022-12-23T09:08:26.863Z,26.1
2022-12-23T09:10:28.719Z,26.1
2022-12-23T09:12:33.206Z,26.6
2022-12-23T09:16:37.056Z,25.6
2022-12-23T09:20:43.247Z,27.7
2022-12-23T09:22:45.058Z,28.4
2022-12-23T09:27:52.042Z,27.8
2022-12-23T09:31:55.836Z,28.2
2022-12-23T09:36:02.030Z,28.7
2022-12-23T09:38:03.850Z,30.7
2022-12-23T09:40:08.362Z,29.3
2022-12-23T09:44:12.016Z,32.3
2022-12-23T09:46:16.626Z,31.5
2022-12-23T09:50:19.994Z,27.5
2022-12-23T09:52:24.535Z,29.3
2022-12-23T09:54:26.238Z,30.6
2022-12-23T09:56:28.064Z,30.3
2022-12-23T09:58:32.561Z,27.4
2022-12-23T10:00:34.401Z,28.8
2022-12-23T10:02:36.463Z,29.8
2022-12-23T10:08:50.089Z,29.4
2022-12-23T10:10:51.917Z,31.5
2022-12-23T10:12:53.779Z,31.8
2022-12-23T10:14:58.184Z,35.1
2022-12-23T10:16:59.884Z,30
2022-12-23T10:19:01.651Z,31.7
2022-12-23T10:21:06.161Z,29.4
2022-12-23T10:23:08.105Z,32.6
2022-12-23T10:25:09.829Z,31.8
2022-12-23T10:27:14.359Z,34.8
2022-12-23T10:29:19.107Z,33.2
2022-12-23T10:31:39.733Z,32.4
2022-12-23T10:33:22.559Z,30.7
2022-12-23T10:35:24.409Z,31.4
2022-12-23T10:37:26.221Z,34.2
2022-12-23T10:53:11.741Z,29.6
2022-12-23T10:55:13.574Z,25.6
2022-12-23T10:57:15.413Z,31.2
2022-12-23T10:59:19.940Z,31.9
2022-12-23T11:01:26.157Z,31.8
2022-12-23T11:03:23.834Z,33.8
2022-12-23T11:05:28.103Z,29.9
2022-12-23T11:07:45.118Z,28.2
2022-12-23T11:09:31.795Z,29.1
2022-12-23T11:11:36.291Z,30.5
2022-12-23T11:13:38.704Z,29.9
2022-12-23T11:15:40.542Z,28
2022-12-23T11:17:45.163Z,30.1
2022-12-23T11:19:46.908Z,28.9
2022-12-23T11:21:48.740Z,28.8
2022-12-23T11:33:41.883Z,20.9
2022-12-23T11:35:43.728Z,21
2022-12-23T11:37:45.428Z,21.3
2022-12-23T11:39:49.791Z,19.1
2022-12-23T11:41:51.569Z,20
2022-12-23T11:43:53.301Z,17.6
2022-12-23T11:45:57.753Z,18.5
2022-12-23T11:47:59.482Z,17.8
2022-12-23T11:50:01.183Z,16.9
2022-12-23T11:52:05.617Z,17.5
2022-12-23T11:56:09.210Z,16.7
2022-12-23T11:58:13.739Z,17.7
2022-12-23T12:00:15.587Z,15.9
2022-12-23T12:02:17.499Z,15.2
2022-12-23T12:12:32.044Z,14.7
2022-12-23T12:14:33.866Z,14
2022-12-23T12:16:38.473Z,12.8
2022-12-23T12:20:41.909Z,14.1
2022-12-23T12:30:56.100Z,15.5
2022-12-23T12:32:57.839Z,15.2
2022-12-23T12:35:02.374Z,17.3
2022-12-23T12:37:04.134Z,17.5
2022-12-23T12:39:05.855Z,18.4
2022-12-23T12:46:18.918Z,21.4
2022-12-23T12:48:20.606Z,19.1
2022-12-23T12:50:25.014Z,20.1
2022-12-23T12:52:26.793Z,19
2022-12-23T12:54:28.530Z,22.5
2022-12-23T12:56:32.921Z,23.2
2022-12-23T12:58:34.700Z,21.1
2022-12-23T13:00:36.458Z,22.2
2022-12-23T13:02:41.126Z,21.3
2022-12-23T13:04:42.602Z,22.7
2022-12-23T13:06:44.421Z,24.4
2022-12-23T13:08:48.762Z,24.3
2022-12-23T13:10:50.540Z,21.8
2022-12-23T13:12:52.246Z,24.9
2022-12-23T13:14:56.690Z,21.5
2022-12-23T13:16:58.471Z,24.4
2022-12-23T13:21:04.634Z,24.3
2022-12-23T13:23:34.282Z,22.8
2022-12-23T13:25:08.251Z,22.7
2022-12-23T13:29:14.385Z,25
2022-12-23T13:31:16.221Z,23.9
2022-12-23T13:33:20.585Z,23.1
2022-12-23T13:35:22.438Z,24.3
2022-12-23T13:37:24.236Z,24.5
2022-12-23T13:41:30.596Z,24.5
2022-12-23T13:45:37.023Z,26.7
2022-12-23T13:47:38.809Z,29.1
2022-12-23T13:51:45.177Z,24.4
2022-12-23T13:53:46.919Z,25.6
2022-12-23T13:55:48.751Z,22.8
2022-12-23T13:57:53.277Z,26.3
2022-12-23T13:59:58.477Z,27
2022-12-23T14:01:57.039Z,22.9
2022-12-23T14:04:01.489Z,28.2
2022-12-23T14:06:03.213Z,26.6
2022-12-23T14:08:05.049Z,29.8
2022-12-23T14:10:09.597Z,28.4
2022-12-23T14:12:11.424Z,23.3
2022-12-23T14:14:13.261Z,26.5
2022-12-23T14:16:17.918Z,26.5
2022-12-23T14:18:19.524Z,24.7
2022-12-23T14:20:21.387Z,23.4
2022-12-23T14:22:25.914Z,24.3
2022-12-23T14:24:27.740Z,23.9
2022-12-23T14:26:29.557Z,23.1
2022-12-23T14:28:34.053Z,22.3
2022-12-23T14:30:35.815Z,24.2
2022-12-23T14:32:37.569Z,22.7
2022-12-23T14:41:58.739Z,21.5
2022-12-23T14:55:30.195Z,20.7
2022-12-23T14:57:17.847Z,23
2022-12-23T14:59:22.307Z,21.1
2022-12-23T15:03:26.044Z,23
2022-12-23T15:05:30.620Z,24.9
2022-12-23T15:07:32.297Z,21.6
2022-12-23T15:09:33.996Z,31
2022-12-23T15:11:38.470Z,22.1
2022-12-23T15:13:40.160Z,18.8
2022-12-23T15:15:42.171Z,22.6
2022-12-23T15:17:46.558Z,19.9
2022-12-23T15:19:48.390Z,24
2022-12-23T15:21:56.709Z,25.7
2022-12-23T15:23:54.523Z,24.4
2022-12-23T15:25:56.276Z,21.1
2022-12-23T15:28:01.860Z,24
2022-12-23T15:35:11.145Z,33.5
2022-12-23T15:37:12.992Z,24.4
2022-12-23T15:46:13.208Z,22.6
2022-12-23T15:48:14.974Z,21.5
2022-12-23T15:50:16.709Z,22.7
2022-12-23T15:52:21.089Z,24.3
2022-12-23T15:54:22.862Z,23.2
2022-12-23T15:56:24.614Z,23.7
2022-12-23T15:58:29.032Z,23.8
2022-12-23T16:00:30.804Z,22.3
2022-12-23T16:03:00.241Z,21.6
2022-12-23T16:08:40.533Z,19.2
2022-12-23T16:10:44.949Z,21
2022-12-23T16:12:46.713Z,21.4
2022-12-23T16:14:48.503Z,18.6
2022-12-23T16:26:27.643Z,18.8
2022-12-23T16:28:29.374Z,21.6
2022-12-23T16:30:31.120Z,22.4
2022-12-23T16:32:35.525Z,19.6
2022-12-23T16:36:39.244Z,17.9
2022-12-23T16:38:43.684Z,20.1
2022-12-23T16:40:45.443Z,18.1
2022-12-23T16:42:47.203Z,19.6
2022-12-23T16:44:51.706Z,21.2
2022-12-23T16:46:53.475Z,21.4
2022-12-23T16:48:55.442Z,20.8
2022-12-23T16:50:59.658Z,20.2
2022-12-23T16:53:01.455Z,23.9
2022-12-23T16:55:03.236Z,24.4
2022-12-23T16:57:07.634Z,23.3
2022-12-23T16:59:09.390Z,22.3
2022-12-23T17:01:11.180Z,29.5
2022-12-23T17:03:15.591Z,22.9
2022-12-23T17:05:17.343Z,23.2
2022-12-23T17:07:19.100Z,22.5
2022-12-23T17:09:23.639Z,23.4
2022-12-23T17:13:27.480Z,25
2022-12-23T17:15:31.886Z,29.3
2022-12-23T17:17:33.817Z,30.3
2022-12-23T17:19:35.608Z,27.9
2022-12-23T17:28:35.772Z,25.1
2022-12-23T17:30:37.626Z,23.5
2022-12-23T17:32:39.456Z,26
2022-12-23T17:41:39.601Z,26
2022-12-23T17:49:50.383Z,28.5
2022-12-23T17:51:51.019Z,28.7
2022-12-23T17:59:01.751Z,26.3
2022-12-23T18:01:03.573Z,28.9
2022-12-23T18:14:07.013Z,29.1
2022-12-23T18:19:13.663Z,28.3
2022-12-23T18:25:21.798Z,35.1
2022-12-23T18:27:23.527Z,28.3
2022-12-23T18:31:30.079Z,25.8
2022-12-23T18:44:02.930Z,26.9
2022-12-23T18:48:06.550Z,28.1
2022-12-23T18:50:11.910Z,28.1
2022-12-23T18:52:13.634Z,26.1
2022-12-23T18:54:15.698Z,24.6
2022-12-23T18:58:19.240Z,23
2022-12-23T19:00:21.007Z,25.6
2022-12-23T19:06:29.786Z,22.4
2022-12-23T19:08:31.549Z,24.3
2022-12-23T19:10:33.396Z,19.8
2022-12-23T19:12:35.154Z,23.3
2022-12-23T19:14:36.893Z,20.4
2022-12-23T19:18:43.917Z,24.3
2022-12-23T19:20:45.680Z,22.1
2022-12-23T19:22:47.527Z,20.9
2022-12-23T19:26:51.028Z,18.4
2022-12-23T19:28:52.801Z,20.7
2022-12-23T19:30:54.638Z,21.8
2022-12-23T19:35:01.617Z,17.6
2022-12-23T19:37:03.366Z,21.8
2022-12-23T19:38:05.993Z,17.5
2022-12-23T19:40:07.767Z,18.8
2022-12-23T19:42:09.506Z,14.6
2022-12-23T19:44:11.274Z,15.5
2022-12-23T19:46:16.610Z,13.7
2022-12-23T19:48:18.337Z,16.5
2022-12-23T19:50:20.105Z,11.7
2022-12-23T19:52:21.828Z,14.2
2022-12-23T19:54:23.650Z,16
2022-12-23T19:58:27.209Z,12.1
2022-12-23T20:00:32.449Z,12.3
2022-12-23T20:02:34.261Z,14.7
2022-12-23T20:04:36.039Z,12.9
2022-12-23T20:06:37.813Z,13.4
2022-12-23T20:08:39.609Z,11.9
2022-12-23T20:10:41.419Z,14.7
2022-12-23T20:12:43.194Z,11.2
2022-12-23T20:14:48.483Z,12.2
2022-12-23T20:16:50.280Z,13
2022-12-23T20:18:52.077Z,14.7
2022-12-23T20:20:53.851Z,12.6
2022-12-23T20:22:55.662Z,12
2022-12-23T20:24:57.448Z,14.8
2022-12-23T20:34:10.801Z,11.7
2022-12-23T20:40:15.976Z,9.6
2022-12-23T20:42:21.248Z,10.2
2022-12-23T20:44:34.612Z,9.6
2022-12-23T20:46:24.870Z,10.3
2022-12-23T20:48:33.545Z,10.4
2022-12-23T20:50:28.411Z,10.4
2022-12-23T20:54:33.622Z,10.9
2022-12-23T20:58:39.048Z,10.9
2022-12-23T21:02:42.691Z,9.8
2022-12-23T21:04:44.559Z,11.2
2022-12-23T21:06:46.221Z,8.6
2022-12-23T21:10:53.298Z,8.4
2022-12-23T21:12:55.078Z,8.7
2022-12-23T21:14:56.897Z,7.9
2022-12-23T21:21:02.260Z,10.9
2022-12-23T21:23:04.025Z,7.2
2022-12-23T21:27:11.092Z,7.3
2022-12-23T21:30:15.525Z,7.8
2022-12-23T21:32:17.317Z,7
2022-12-23T21:34:19.101Z,7
2022-12-23T21:36:21.047Z,5.5
2022-12-23T21:38:26.130Z,7.5
2022-12-23T21:40:27.899Z,7.4
2022-12-23T21:42:29.751Z,6.1
2022-12-23T21:46:33.271Z,6
2022-12-23T21:48:35.030Z,6.8
2022-12-23T21:50:36.828Z,5.5
2022-12-23T21:56:45.654Z,4.1
2022-12-23T21:58:47.457Z,2.9
2022-12-23T22:00:49.296Z,9.4
2022-12-23T22:06:58.028Z,7.3
2022-12-23T22:17:06.959Z,5.5
2022-12-23T22:23:15.800Z,7.9
2022-12-23T22:25:17.586Z,7
2022-12-23T22:27:35.249Z,2.9
2022-12-23T22:33:44.100Z,3.6
2022-12-23T22:39:49.477Z,3.9
2022-12-23T22:41:51.306Z,4.6
2022-12-23T22:43:53.035Z,4.5
2022-12-23T22:45:54.959Z,3
2022-12-23T22:50:01.985Z,7.6
2022-12-23T22:52:03.676Z,3.9
2022-12-23T23:00:12.450Z,5.1
2022-12-23T23:02:16.095Z,3.5
2022-12-23T23:04:17.782Z,4.4
2022-12-23T23:08:21.304Z,3.8
2022-12-23T23:10:23.068Z,3.4
2022-12-23T23:12:24.823Z,4.7
2022-12-23T23:14:26.633Z,5.1
2022-12-23T23:16:31.973Z,4.8
2022-12-23T23:18:33.602Z,5.3
2022-12-23T23:20:35.393Z,4.3
2022-12-23T23:21:38.027Z,2.5
2022-12-23T23:25:41.614Z,5.3
2022-12-23T23:29:48.645Z,7.4
2022-12-23T23:33:52.235Z,4.6
2022-12-23T23:35:54.010Z,3.9
2022-12-23T23:37:55.773Z,4.6
2022-12-23T23:39:57.548Z,3.2
2022-12-23T23:41:59.347Z,3.8
2022-12-23T23:44:04.652Z,4.7
2022-12-23T23:46:06.468Z,3.6
2022-12-23T23:48:08.162Z,4.9
2022-12-23T23:50:09.936Z,3.8
2022-12-23T23:54:13.517Z,4.5
2022-12-23T23:56:19.123Z,2.9
2022-12-23T23:58:20.556Z,4.5
